NKS2509 KLAS-KRNO
Flight info
| Callsign | NKS2509 |
|---|---|
| Flight time | N/A |
| Altitude | 36000 |
| Route | JOHKR5 KENNO SCOLA1 |
| Aircraft | A320/M-SDE3FGHIRWY/LB1 |
Departure
| Time | N/A |
|---|---|
| Airport | Harry Reid International Airport (KLAS) |
Arrival
| Time | 2026-05-05 18:38 |
|---|---|
| Airport | Reno Tahoe International Airport (KRNO) |
| Time | Latitude | Longitude | Altitude | Speed | Heading |
|---|---|---|---|---|---|
| 2026-05-05 18:14 | 38.04554 | -117.95885 | 35952 ft | 433 kts | 335° |
| 2026-05-05 18:14 | 38.09642 | -117.99974 | 35939 ft | 432 kts | 335° |
| 2026-05-05 18:15 | 38.14714 | -118.04058 | 35944 ft | 432 kts | 335° |
| 2026-05-05 18:15 | 38.19788 | -118.08151 | 35944 ft | 431 kts | 335° |
| 2026-05-05 18:16 | 38.24811 | -118.12218 | 35934 ft | 431 kts | 336° |
| 2026-05-05 18:16 | 38.29873 | -118.16312 | 35946 ft | 431 kts | 336° |
| 2026-05-05 18:17 | 38.34933 | -118.20407 | 35846 ft | 432 kts | 336° |
| 2026-05-05 18:17 | 38.37459 | -118.22461 | 35603 ft | 430 kts | 336° |
| 2026-05-05 18:17 | 38.39974 | -118.24511 | 35358 ft | 427 kts | 336° |
| 2026-05-05 18:17 | 38.42370 | -118.26782 | 35071 ft | 432 kts | 327° |
| 2026-05-05 18:18 | 38.44562 | -118.29428 | 34596 ft | 434 kts | 326° |
| 2026-05-05 18:18 | 38.46732 | -118.32099 | 34104 ft | 433 kts | 326° |
| 2026-05-05 18:18 | 38.48891 | -118.34772 | 33572 ft | 432 kts | 326° |
| 2026-05-05 18:18 | 38.51010 | -118.37403 | 33083 ft | 429 kts | 326° |
| 2026-05-05 18:19 | 38.53147 | -118.40056 | 32600 ft | 427 kts | 326° |
| 2026-05-05 18:19 | 38.55270 | -118.42690 | 32104 ft | 425 kts | 326° |
| 2026-05-05 18:19 | 38.57382 | -118.45311 | 31607 ft | 421 kts | 326° |
| 2026-05-05 18:19 | 38.59477 | -118.47908 | 31136 ft | 418 kts | 326° |
| 2026-05-05 18:20 | 38.61559 | -118.50483 | 30673 ft | 415 kts | 326° |
| 2026-05-05 18:20 | 38.63628 | -118.53045 | 30196 ft | 412 kts | 326° |
| 2026-05-05 18:20 | 38.65681 | -118.55590 | 29683 ft | 409 kts | 326° |
| 2026-05-05 18:20 | 38.67705 | -118.58107 | 29172 ft | 404 kts | 326° |
| 2026-05-05 18:21 | 38.69708 | -118.60603 | 28724 ft | 400 kts | 326° |
| 2026-05-05 18:21 | 38.71691 | -118.63078 | 28304 ft | 396 kts | 325° |
| 2026-05-05 18:21 | 38.73631 | -118.65496 | 27885 ft | 393 kts | 325° |
| 2026-05-05 18:21 | 38.75586 | -118.67928 | 27409 ft | 391 kts | 325° |
| 2026-05-05 18:22 | 38.77537 | -118.70345 | 26948 ft | 390 kts | 325° |
| 2026-05-05 18:22 | 38.79484 | -118.72756 | 26480 ft | 389 kts | 324° |
| 2026-05-05 18:22 | 38.81424 | -118.75163 | 26009 ft | 388 kts | 324° |
| 2026-05-05 18:22 | 38.83359 | -118.77573 | 25549 ft | 387 kts | 324° |
| 2026-05-05 18:23 | 38.85288 | -118.79982 | 25096 ft | 387 kts | 323° |
| 2026-05-05 18:23 | 38.87219 | -118.82395 | 24612 ft | 387 kts | 323° |
| 2026-05-05 18:23 | 38.89150 | -118.84808 | 24165 ft | 387 kts | 322° |
| 2026-05-05 18:23 | 38.91053 | -118.87186 | 23707 ft | 387 kts | 322° |
| 2026-05-05 18:24 | 38.92980 | -118.89596 | 23228 ft | 386 kts | 322° |
| 2026-05-05 18:24 | 38.94893 | -118.91993 | 22794 ft | 383 kts | 322° |
| 2026-05-05 18:24 | 38.96793 | -118.94377 | 22335 ft | 379 kts | 322° |
| 2026-05-05 18:24 | 38.98679 | -118.96742 | 21839 ft | 377 kts | 322° |
| 2026-05-05 18:25 | 39.00544 | -118.99081 | 21384 ft | 374 kts | 321° |
| 2026-05-05 18:25 | 39.01773 | -119.00623 | 21074 ft | 372 kts | 321° |
| 2026-05-05 18:25 | 39.04237 | -119.03722 | 20494 ft | 368 kts | 321° |
| 2026-05-05 18:25 | 39.06057 | -119.06015 | 20048 ft | 365 kts | 321° |
| 2026-05-05 18:26 | 39.07861 | -119.08289 | 19614 ft | 362 kts | 321° |
| 2026-05-05 18:26 | 39.09628 | -119.10517 | 19192 ft | 359 kts | 321° |
| 2026-05-05 18:26 | 39.11408 | -119.12762 | 18761 ft | 357 kts | 321° |
| 2026-05-05 18:26 | 39.13178 | -119.14992 | 18335 ft | 355 kts | 321° |
| 2026-05-05 18:27 | 39.14935 | -119.17207 | 17921 ft | 352 kts | 321° |
| 2026-05-05 18:27 | 39.16653 | -119.19380 | 17772 ft | 341 kts | 321° |
| 2026-05-05 18:27 | 39.18332 | -119.21503 | 17412 ft | 336 kts | 321° |
| 2026-05-05 18:27 | 39.19997 | -119.23602 | 17004 ft | 334 kts | 321° |
| 2026-05-05 18:28 | 39.23288 | -119.27756 | 16234 ft | 329 kts | 321° |
| 2026-05-05 18:28 | 39.24917 | -119.29815 | 15846 ft | 327 kts | 321° |
| 2026-05-05 18:28 | 39.26515 | -119.31837 | 15460 ft | 326 kts | 321° |
| 2026-05-05 18:29 | 39.28127 | -119.33878 | 15096 ft | 324 kts | 321° |
| 2026-05-05 18:29 | 39.29735 | -119.35913 | 14757 ft | 323 kts | 321° |
| 2026-05-05 18:29 | 39.31336 | -119.37940 | 14440 ft | 321 kts | 321° |
| 2026-05-05 18:29 | 39.32927 | -119.39959 | 14104 ft | 319 kts | 320° |
| 2026-05-05 18:30 | 39.34498 | -119.41960 | 13837 ft | 315 kts | 320° |
| 2026-05-05 18:30 | 39.36156 | -119.43764 | 13468 ft | 309 kts | 329° |
| 2026-05-05 18:30 | 39.37899 | -119.45381 | 13109 ft | 307 kts | 329° |
| 2026-05-05 18:30 | 39.39627 | -119.46987 | 12760 ft | 305 kts | 328° |
| 2026-05-05 18:31 | 39.41340 | -119.48584 | 12447 ft | 303 kts | 328° |
| 2026-05-05 18:31 | 39.43021 | -119.50155 | 12110 ft | 301 kts | 328° |
| 2026-05-05 18:31 | 39.44736 | -119.51762 | 11422 ft | 311 kts | 327° |
| 2026-05-05 18:31 | 39.46528 | -119.53438 | 10605 ft | 323 kts | 327° |
| 2026-05-05 18:32 | 39.48365 | -119.55157 | 10111 ft | 324 kts | 327° |
| 2026-05-05 18:32 | 39.50162 | -119.56847 | 9877 ft | 316 kts | 327° |
| 2026-05-05 18:32 | 39.51942 | -119.58523 | 9395 ft | 315 kts | 326° |
| 2026-05-05 18:32 | 39.53678 | -119.60154 | 8995 ft | 301 kts | 326° |
| 2026-05-05 18:33 | 39.55335 | -119.61711 | 8590 ft | 288 kts | 326° |
| 2026-05-05 18:33 | 39.56923 | -119.63203 | 8247 ft | 276 kts | 326° |
| 2026-05-05 18:33 | 39.58451 | -119.64637 | 7897 ft | 266 kts | 326° |
| 2026-05-05 18:33 | 39.59855 | -119.66077 | 7554 ft | 257 kts | 315° |
| 2026-05-05 18:34 | 39.60808 | -119.67928 | 7245 ft | 239 kts | 294° |
| 2026-05-05 18:34 | 39.61189 | -119.69944 | 6952 ft | 226 kts | 276° |
| 2026-05-05 18:34 | 39.61059 | -119.71923 | 6685 ft | 213 kts | 258° |
| 2026-05-05 18:34 | 39.60517 | -119.73634 | 6406 ft | 200 kts | 239° |
| 2026-05-05 18:35 | 39.59672 | -119.74984 | 6144 ft | 186 kts | 223° |
| 2026-05-05 18:35 | 39.58654 | -119.75922 | 5915 ft | 175 kts | 209° |
| 2026-05-05 18:35 | 39.57566 | -119.76464 | 5679 ft | 163 kts | 194° |
| 2026-05-05 18:35 | 39.56464 | -119.76654 | 5451 ft | 157 kts | 180° |
| 2026-05-05 18:36 | 39.55467 | -119.76654 | 5268 ft | 154 kts | 180° |
| 2026-05-05 18:36 | 39.55376 | -119.76654 | 5252 ft | 154 kts | 180° |
| 2026-05-05 18:36 | 39.54314 | -119.76659 | 5043 ft | 152 kts | 180° |
| 2026-05-05 18:36 | 39.53912 | -119.76662 | 4966 ft | 152 kts | 180° |
| 2026-05-05 18:37 | 39.52945 | -119.76665 | 4779 ft | 152 kts | 179° |
| 2026-05-05 18:37 | 39.51898 | -119.76671 | 4642 ft | 153 kts | 181° |
| 2026-05-05 18:37 | 39.50836 | -119.76681 | 4511 ft | 144 kts | 179° |
| 2026-05-05 18:37 | 39.50104 | -119.76678 | 4504 ft | 62 kts | 180° |
| 2026-05-05 18:38 | 39.49863 | -119.76680 | 4509 ft | 23 kts | 180° |
| 2026-05-05 18:38 | 39.49744 | -119.76701 | 4509 ft | 10 kts | 239° |
| 2026-05-05 18:38 | 39.49735 | -119.76794 | 4509 ft | 11 kts | 270° |
| 2026-05-05 18:38 | 39.49736 | -119.76896 | 4509 ft | 12 kts | 270° |
| 2026-05-05 18:39 | 39.49735 | -119.77011 | 4507 ft | 14 kts | 270° |
| 2026-05-05 18:39 | 39.49738 | -119.77141 | 4506 ft | 11 kts | 277° |
| 2026-05-05 18:39 | 39.49780 | -119.77153 | 4507 ft | 6 kts | 5° |
| 2026-05-05 18:39 | 39.49829 | -119.77153 | 4506 ft | 9 kts | 0° |
| 2026-05-05 18:40 | 39.49904 | -119.77152 | 4508 ft | 12 kts | 0° |
| 2026-05-05 18:40 | 39.50001 | -119.77152 | 4508 ft | 16 kts | 359° |
| 2026-05-05 18:40 | 39.50123 | -119.77152 | 4508 ft | 20 kts | 0° |
| 2026-05-05 18:40 | 39.50275 | -119.77152 | 4508 ft | 20 kts | 0° |
| 2026-05-05 18:41 | 39.50371 | -119.77188 | 4507 ft | 13 kts | 291° |
| 2026-05-05 18:41 | 39.50374 | -119.77311 | 4507 ft | 11 kts | 271° |
| 2026-05-05 18:41 | 39.50379 | -119.77374 | 4507 ft | 2 kts | 319° |
| 2026-05-05 18:41 | 39.50405 | -119.77374 | 4507 ft | 4 kts | 1° |
| 2026-05-05 18:42 | 39.50433 | -119.77375 | 4507 ft | 2 kts | 359° |
| 2026-05-05 18:42 | 39.50440 | -119.77375 | 4508 ft | 0 kts | 359° |
| 2026-05-05 18:42 | 39.50441 | -119.77375 | 4508 ft | 0 kts | 359° |